createdAt,value
2023-03-29T00:02:30.981Z,5.80
2023-03-29T00:05:02.118Z,5.90
2023-03-29T00:07:30.313Z,5.80
2023-03-29T00:09:58.061Z,5.80
2023-03-29T00:12:25.560Z,5.80
2023-03-29T00:14:52.829Z,5.80
2023-03-29T00:17:19.729Z,5.80
2023-03-29T00:19:47.183Z,5.80
2023-03-29T00:22:14.450Z,5.70
2023-03-29T00:24:41.461Z,5.70
2023-03-29T00:27:08.398Z,5.70
2023-03-29T00:29:35.643Z,5.70
2023-03-29T00:32:02.426Z,5.70
2023-03-29T00:34:32.310Z,5.70
2023-03-29T00:36:59.192Z,5.60
2023-03-29T00:39:27.912Z,5.70
2023-03-29T00:41:55.306Z,5.70
2023-03-29T00:44:56.272Z,5.70
2023-03-29T00:47:29.226Z,5.80
2023-03-29T00:50:01.609Z,5.80
2023-03-29T00:52:32.095Z,5.70
2023-03-29T00:55:04.195Z,5.70
2023-03-29T00:57:32.584Z,5.80
2023-03-29T01:00:01.336Z,5.80
2023-03-29T01:02:34.517Z,5.80
2023-03-29T01:05:09.703Z,5.80
2023-03-29T01:07:48.034Z,5.80
2023-03-29T01:10:21.465Z,5.70
2023-03-29T01:12:53.439Z,5.70
2023-03-29T01:15:25.533Z,5.70
2023-03-29T01:17:53.854Z,5.70
2023-03-29T01:20:56.336Z,5.80
2023-03-29T01:23:45.931Z,5.80
2023-03-29T01:26:21.522Z,5.90
2023-03-29T01:29:00.281Z,5.90
2023-03-29T01:31:31.084Z,6.00
2023-03-29T01:34:37.281Z,5.90
2023-03-29T01:37:28.220Z,5.90
2023-03-29T01:39:55.196Z,5.90
2023-03-29T01:43:00.658Z,5.80
2023-03-29T01:45:32.199Z,5.80
2023-03-29T01:48:13.993Z,5.80
2023-03-29T01:50:43.539Z,5.70
2023-03-29T01:53:14.782Z,5.70
2023-03-29T01:55:47.236Z,5.70
2023-03-29T01:58:16.482Z,5.80
2023-03-29T02:00:45.179Z,5.70
2023-03-29T02:03:14.846Z,5.80
2023-03-29T02:05:43.102Z,5.80
2023-03-29T02:08:14.377Z,5.80
2023-03-29T02:10:41.937Z,5.70
2023-03-29T02:13:08.792Z,5.60
2023-03-29T02:15:35.997Z,5.60
2023-03-29T02:18:03.894Z,5.50
2023-03-29T02:20:36.926Z,5.60
2023-03-29T02:23:14.693Z,5.60
2023-03-29T02:25:43.161Z,5.60
2023-03-29T02:28:10.047Z,5.70
2023-03-29T02:31:14.863Z,5.70
2023-03-29T02:33:46.859Z,5.80
2023-03-29T02:36:18.447Z,5.80
2023-03-29T02:38:46.299Z,5.80
2023-03-29T02:41:14.108Z,5.70
2023-03-29T02:43:42.316Z,5.70
2023-03-29T02:46:12.478Z,5.70
2023-03-29T02:48:40.877Z,5.60
2023-03-29T02:51:27.479Z,5.60
2023-03-29T02:54:03.128Z,5.50
2023-03-29T02:56:30.279Z,5.60
2023-03-29T02:58:57.083Z,5.60
2023-03-29T03:01:24.670Z,5.60
2023-03-29T03:03:52.007Z,5.70
2023-03-29T03:06:19.031Z,5.60
2023-03-29T03:08:45.857Z,5.60
2023-03-29T03:11:12.766Z,5.70
2023-03-29T03:13:39.633Z,5.60
2023-03-29T03:16:07.941Z,5.60
2023-03-29T03:18:34.800Z,5.60
2023-03-29T03:21:01.865Z,5.50
2023-03-29T03:23:29.570Z,5.60
2023-03-29T03:25:56.986Z,5.60
2023-03-29T03:28:24.368Z,5.70
2023-03-29T03:30:51.394Z,5.70
2023-03-29T03:33:19.420Z,5.70
2023-03-29T03:35:47.995Z,5.70
2023-03-29T03:38:15.320Z,5.70
2023-03-29T03:40:42.565Z,5.60
2023-03-29T03:43:09.770Z,5.60
2023-03-29T03:45:36.625Z,5.70
2023-03-29T03:48:03.656Z,5.70
2023-03-29T03:50:30.544Z,5.70
2023-03-29T03:52:57.584Z,5.70
2023-03-29T03:55:24.528Z,5.70
2023-03-29T03:57:52.063Z,5.70
2023-03-29T04:00:22.845Z,5.80
2023-03-29T04:02:50.697Z,5.80
2023-03-29T04:05:17.654Z,5.80
2023-03-29T04:07:44.534Z,5.80
2023-03-29T04:10:11.874Z,5.80
2023-03-29T04:12:39.219Z,5.80
2023-03-29T04:15:06.824Z,5.80
2023-03-29T04:17:33.920Z,5.80
2023-03-29T04:20:02.258Z,5.80
2023-03-29T04:22:29.350Z,5.70
2023-03-29T04:24:56.273Z,5.70
2023-03-29T04:27:23.117Z,5.80
2023-03-29T04:29:49.968Z,5.90
2023-03-29T04:32:16.848Z,5.90
2023-03-29T04:34:43.665Z,5.90
2023-03-29T04:37:11.383Z,5.90
2023-03-29T04:39:38.845Z,5.80
2023-03-29T04:42:06.022Z,5.90
2023-03-29T04:44:33.998Z,5.80
2023-03-29T04:47:01.697Z,5.90
2023-03-29T04:49:28.983Z,5.90
2023-03-29T04:51:55.940Z,5.90
2023-03-29T04:54:22.859Z,5.80
2023-03-29T04:56:51.676Z,5.80
2023-03-29T04:59:18.794Z,5.80
2023-03-29T05:01:46.626Z,5.70
2023-03-29T05:04:14.112Z,5.70
2023-03-29T05:06:42.270Z,5.70
2023-03-29T05:09:09.098Z,5.70
2023-03-29T05:11:36.273Z,5.70
2023-03-29T05:14:07.178Z,5.70
2023-03-29T05:16:34.697Z,5.80
2023-03-29T05:19:01.790Z,5.70
2023-03-29T05:21:28.644Z,5.70
2023-03-29T05:23:55.891Z,5.70
2023-03-29T05:26:23.571Z,5.80
2023-03-29T05:28:50.898Z,5.80
2023-03-29T05:31:18.165Z,5.70
2023-03-29T05:33:45.114Z,5.70
2023-03-29T05:36:14.675Z,5.70
2023-03-29T05:38:42.291Z,5.60
2023-03-29T05:41:10.802Z,5.60
2023-03-29T05:43:38.417Z,5.60
2023-03-29T05:46:06.234Z,5.60
2023-03-29T05:48:33.549Z,5.60
2023-03-29T05:51:00.671Z,5.60
2023-03-29T05:53:28.639Z,5.50
2023-03-29T05:55:56.074Z,5.60
2023-03-29T05:58:23.011Z,5.50
2023-03-29T06:00:51.307Z,5.50
2023-03-29T06:03:22.131Z,5.50
2023-03-29T06:05:55.210Z,5.40
2023-03-29T06:08:22.323Z,5.50
2023-03-29T06:10:50.293Z,5.50
2023-03-29T06:13:17.524Z,5.60
2023-03-29T06:15:45.086Z,5.60
2023-03-29T06:18:12.508Z,5.70
2023-03-29T06:20:39.482Z,5.70
2023-03-29T06:23:06.359Z,5.70
2023-03-29T06:25:34.168Z,5.70
2023-03-29T06:28:01.210Z,5.80
2023-03-29T06:30:28.766Z,5.80
2023-03-29T06:32:55.937Z,5.80
2023-03-29T06:35:22.920Z,5.80
2023-03-29T06:37:49.984Z,5.80
2023-03-29T06:40:19.191Z,5.90
2023-03-29T06:42:47.649Z,5.90
2023-03-29T06:45:14.613Z,5.90
2023-03-29T06:47:42.038Z,5.90
2023-03-29T06:50:09.395Z,6.00
2023-03-29T06:52:36.766Z,6.00
2023-03-29T06:55:07.572Z,6.10
2023-03-29T06:57:34.578Z,6.20
2023-03-29T07:00:01.681Z,6.20
2023-03-29T07:02:29.116Z,6.20
2023-03-29T07:04:56.224Z,6.20
2023-03-29T07:07:27.374Z,6.20
2023-03-29T07:09:54.557Z,6.20
2023-03-29T07:12:24.515Z,6.30
2023-03-29T07:14:51.376Z,6.40
2023-03-29T07:17:18.564Z,6.50
2023-03-29T07:19:45.380Z,6.50
2023-03-29T07:22:12.234Z,6.60
2023-03-29T07:24:39.089Z,6.70
2023-03-29T07:27:06.004Z,6.70
2023-03-29T07:29:33.040Z,6.70
2023-03-29T07:32:00.295Z,6.70
2023-03-29T07:34:27.204Z,6.70
2023-03-29T07:36:54.637Z,6.70
2023-03-29T07:39:22.362Z,6.80
2023-03-29T07:41:49.190Z,6.80
2023-03-29T07:44:19.272Z,6.80
2023-03-29T07:46:46.155Z,6.80
2023-03-29T07:49:12.977Z,6.80
2023-03-29T07:51:39.885Z,6.90
2023-03-29T07:54:06.791Z,6.90
2023-03-29T07:56:33.940Z,6.90
2023-03-29T07:59:00.856Z,7.00
2023-03-29T08:01:27.722Z,7.00
2023-03-29T08:03:55.150Z,7.00
2023-03-29T08:06:22.262Z,7.00
2023-03-29T08:08:49.105Z,7.10
2023-03-29T08:11:16.053Z,7.10
2023-03-29T08:13:42.900Z,7.20
2023-03-29T08:16:09.846Z,7.10
2023-03-29T08:18:36.650Z,7.20
2023-03-29T08:21:04.311Z,7.20
2023-03-29T08:23:31.681Z,7.20
2023-03-29T08:25:58.545Z,7.30
2023-03-29T08:28:25.388Z,7.40
2023-03-29T08:30:52.849Z,7.40
2023-03-29T08:33:19.758Z,7.40
2023-03-29T08:35:47.028Z,7.50
2023-03-29T08:38:14.300Z,7.60
2023-03-29T08:40:41.847Z,7.70
2023-03-29T08:43:36.077Z,7.70
2023-03-29T08:46:36.429Z,7.80
2023-03-29T08:49:06.196Z,7.90
2023-03-29T08:51:40.711Z,7.90
2023-03-29T08:54:25.513Z,8.00
2023-03-29T08:56:58.515Z,8.10
2023-03-29T08:59:29.885Z,8.20
2023-03-29T09:01:59.308Z,8.20
2023-03-29T09:04:31.724Z,8.30
2023-03-29T09:06:59.344Z,8.40
2023-03-29T09:09:32.810Z,8.40
2023-03-29T09:12:11.941Z,8.50
2023-03-29T09:15:04.948Z,8.60
2023-03-29T09:17:38.010Z,8.70
2023-03-29T09:20:22.007Z,8.70
2023-03-29T09:22:55.046Z,8.80
2023-03-29T09:25:53.622Z,8.80
2023-03-29T09:28:37.052Z,8.90
2023-03-29T09:31:05.182Z,9.00
2023-03-29T09:33:45.181Z,9.10
2023-03-29T09:36:32.048Z,9.10
2023-03-29T09:38:59.660Z,9.20
2023-03-29T09:41:35.618Z,9.30
2023-03-29T09:44:12.696Z,9.20
2023-03-29T09:46:58.128Z,9.30
2023-03-29T09:49:33.144Z,9.30
2023-03-29T09:52:05.904Z,9.40
2023-03-29T09:54:32.944Z,9.50
2023-03-29T09:57:00.268Z,9.50
2023-03-29T09:59:27.147Z,9.50
2023-03-29T10:02:05.299Z,9.60
2023-03-29T10:04:32.496Z,9.60
2023-03-29T10:07:00.548Z,9.70
2023-03-29T10:09:30.317Z,9.70
2023-03-29T10:12:02.290Z,9.80
2023-03-29T10:14:50.352Z,9.90
2023-03-29T10:17:26.721Z,10.00
2023-03-29T10:19:57.828Z,10.00
2023-03-29T10:22:55.676Z,10.00
2023-03-29T10:25:33.686Z,10.00
2023-03-29T10:28:13.416Z,10.00
2023-03-29T10:30:40.462Z,10.10
2023-03-29T10:33:17.679Z,10.20
2023-03-29T10:35:46.781Z,10.30
2023-03-29T10:38:19.591Z,10.40
2023-03-29T10:40:49.000Z,10.50
2023-03-29T10:43:26.275Z,10.50
2023-03-29T10:46:05.827Z,10.50
2023-03-29T10:48:35.375Z,10.70
2023-03-29T10:51:03.109Z,10.90
2023-03-29T10:53:33.017Z,11.00
2023-03-29T10:56:17.353Z,11.10
2023-03-29T10:58:54.961Z,11.20
2023-03-29T11:01:33.854Z,11.40
2023-03-29T11:04:04.101Z,11.40
2023-03-29T11:06:45.537Z,11.50
2023-03-29T11:09:41.375Z,11.60
2023-03-29T11:12:24.187Z,11.60
2023-03-29T11:15:34.253Z,11.60
2023-03-29T11:18:19.919Z,11.60
2023-03-29T11:21:10.727Z,11.60
2023-03-29T11:23:59.722Z,11.80
2023-03-29T11:26:38.447Z,11.90
2023-03-29T11:29:35.456Z,12.00
2023-03-29T11:32:44.692Z,12.30
2023-03-29T11:35:29.428Z,12.50
2023-03-29T11:38:00.259Z,12.70
2023-03-29T11:40:48.408Z,12.80
2023-03-29T11:43:32.028Z,13.10
2023-03-29T11:46:18.959Z,13.30
2023-03-29T11:48:55.774Z,13.40
2023-03-29T11:51:56.911Z,13.10
2023-03-29T11:54:27.034Z,13.10
2023-03-29T11:57:33.101Z,13.20
2023-03-29T12:00:22.964Z,13.50
2023-03-29T12:02:58.115Z,13.80
2023-03-29T12:05:32.839Z,13.90
2023-03-29T12:08:07.183Z,14.00
2023-03-29T12:11:16.416Z,14.00
2023-03-29T12:13:57.303Z,13.90
2023-03-29T12:16:53.761Z,13.80
2023-03-29T12:19:43.832Z,13.80
2023-03-29T12:22:11.032Z,14.00
2023-03-29T12:24:41.632Z,14.20
2023-03-29T12:27:32.732Z,14.40
2023-03-29T12:30:19.425Z,14.50
2023-03-29T12:32:54.707Z,14.70
2023-03-29T12:35:30.851Z,15.00
2023-03-29T12:38:22.257Z,15.00
2023-03-29T12:40:56.328Z,15.10
2023-03-29T12:43:37.610Z,15.10
2023-03-29T12:46:10.046Z,14.90
2023-03-29T12:48:41.725Z,14.60
2023-03-29T12:51:13.861Z,14.40
2023-03-29T12:53:50.438Z,14.20
2023-03-29T12:56:21.747Z,13.90
2023-03-29T12:59:10.765Z,14.00
2023-03-29T13:01:41.350Z,14.00
2023-03-29T13:04:20.143Z,14.10
2023-03-29T13:06:46.903Z,14.10
2023-03-29T13:09:29.807Z,14.20
2023-03-29T13:12:12.072Z,14.30
2023-03-29T13:14:47.102Z,14.20
2023-03-29T13:17:34.910Z,14.00
2023-03-29T13:20:18.151Z,13.80
2023-03-29T13:22:44.987Z,13.70
2023-03-29T13:25:21.093Z,13.60
2023-03-29T13:28:01.456Z,13.40
2023-03-29T13:30:41.549Z,13.40
2023-03-29T13:33:17.333Z,13.30
2023-03-29T13:36:11.617Z,13.20
2023-03-29T13:38:50.497Z,13.20
2023-03-29T13:41:38.578Z,13.30
2023-03-29T13:44:26.096Z,13.30
2023-03-29T13:47:19.375Z,13.30
2023-03-29T13:49:57.269Z,13.30
2023-03-29T13:52:35.325Z,13.30
2023-03-29T13:55:11.756Z,13.30
2023-03-29T13:57:53.184Z,13.30
2023-03-29T14:00:29.341Z,13.30
2023-03-29T14:03:01.475Z,13.30
2023-03-29T14:05:35.952Z,13.30
2023-03-29T14:08:26.320Z,13.40
2023-03-29T14:10:54.149Z,13.60
2023-03-29T14:13:23.585Z,13.90
2023-03-29T14:15:50.514Z,14.10
2023-03-29T14:18:21.869Z,14.20
2023-03-29T14:20:54.804Z,14.20
2023-03-29T14:23:27.549Z,14.10
2023-03-29T14:25:54.411Z,13.90
2023-03-29T14:28:27.870Z,13.80
2023-03-29T14:30:56.710Z,13.70
2023-03-29T14:33:33.484Z,13.70
2023-03-29T14:36:05.298Z,13.60
2023-03-29T14:38:32.632Z,13.60
2023-03-29T14:41:00.843Z,13.50
2023-03-29T14:43:31.066Z,13.40
2023-03-29T14:45:58.780Z,13.40
2023-03-29T14:48:26.355Z,13.30
2023-03-29T14:50:53.334Z,13.30
2023-03-29T14:53:22.542Z,13.30
2023-03-29T14:55:52.288Z,13.20
2023-03-29T14:58:37.751Z,13.30
2023-03-29T15:01:16.707Z,13.20
2023-03-29T15:03:49.499Z,13.20
2023-03-29T15:06:17.047Z,13.30
2023-03-29T15:08:57.570Z,13.30
2023-03-29T15:11:31.700Z,13.30
2023-03-29T15:14:16.934Z,13.30
2023-03-29T15:16:46.995Z,13.20
2023-03-29T15:19:17.503Z,13.20
2023-03-29T15:21:45.089Z,13.10
2023-03-29T15:24:28.431Z,13.20
2023-03-29T15:27:29.563Z,13.20
2023-03-29T15:30:02.763Z,13.10
2023-03-29T15:32:35.899Z,13.10
2023-03-29T15:35:09.410Z,13.10
2023-03-29T15:37:36.829Z,13.00
2023-03-29T15:40:09.873Z,12.90
2023-03-29T15:42:36.798Z,12.90
2023-03-29T15:45:07.430Z,12.90
2023-03-29T15:47:34.639Z,12.90
2023-03-29T15:50:01.560Z,12.90
2023-03-29T15:52:28.495Z,12.90
2023-03-29T15:54:55.352Z,12.80
2023-03-29T15:57:22.537Z,12.70
2023-03-29T15:59:49.571Z,12.70
2023-03-29T16:02:17.479Z,12.50
2023-03-29T16:04:44.486Z,12.50
2023-03-29T16:07:16.480Z,12.40
2023-03-29T16:09:43.952Z,12.30
2023-03-29T16:12:11.359Z,12.20
2023-03-29T16:14:38.629Z,12.20
2023-03-29T16:17:06.272Z,12.20
2023-03-29T16:19:33.820Z,12.20
2023-03-29T16:22:03.264Z,12.20
2023-03-29T16:24:31.711Z,12.10
2023-03-29T16:26:59.827Z,12.10
2023-03-29T16:29:26.734Z,12.10
2023-03-29T16:31:54.411Z,12.00
2023-03-29T16:34:22.766Z,12.00
2023-03-29T16:36:50.692Z,12.00
2023-03-29T16:39:18.338Z,11.90
2023-03-29T16:41:48.402Z,11.80
2023-03-29T16:44:23.809Z,11.80
2023-03-29T16:46:53.799Z,11.80
2023-03-29T16:49:21.570Z,11.70
2023-03-29T16:51:48.685Z,11.70
2023-03-29T16:54:17.259Z,11.60
2023-03-29T16:56:44.329Z,11.60
2023-03-29T16:59:12.023Z,11.60
2023-03-29T17:01:40.766Z,11.50
2023-03-29T17:04:08.500Z,11.50
2023-03-29T17:06:35.964Z,11.50
2023-03-29T17:09:05.022Z,11.40
2023-03-29T17:11:32.025Z,11.40
2023-03-29T17:14:00.035Z,11.40
2023-03-29T17:16:29.042Z,11.40
2023-03-29T17:18:58.480Z,11.40
2023-03-29T17:21:25.406Z,11.30
2023-03-29T17:23:52.562Z,11.30
2023-03-29T17:26:19.448Z,11.30
2023-03-29T17:28:46.241Z,11.30
2023-03-29T17:31:13.293Z,11.30
2023-03-29T17:33:40.107Z,11.30
2023-03-29T17:36:07.881Z,11.20
2023-03-29T17:38:35.169Z,11.20
2023-03-29T17:41:03.734Z,11.20
2023-03-29T17:43:30.866Z,11.20
2023-03-29T17:45:57.734Z,11.20
2023-03-29T17:48:24.858Z,11.20
2023-03-29T17:50:52.038Z,11.20
2023-03-29T17:53:19.031Z,11.10
2023-03-29T17:55:46.039Z,11.10
2023-03-29T17:58:12.906Z,11.10
2023-03-29T18:00:39.900Z,11.00
2023-03-29T18:03:06.910Z,11.00
2023-03-29T18:05:35.426Z,11.00
2023-03-29T18:08:02.756Z,11.00
2023-03-29T18:10:29.879Z,11.00
2023-03-29T18:12:56.727Z,11.00
2023-03-29T18:15:23.629Z,11.00
2023-03-29T18:17:50.840Z,11.00
2023-03-29T18:20:17.876Z,10.90
2023-03-29T18:22:45.014Z,10.90
2023-03-29T18:25:11.809Z,10.90
2023-03-29T18:27:39.713Z,10.90
2023-03-29T18:30:08.666Z,10.90
2023-03-29T18:32:36.287Z,10.90
2023-03-29T18:35:03.608Z,10.90
2023-03-29T18:37:30.883Z,10.90
2023-03-29T18:39:57.731Z,10.90
2023-03-29T18:42:24.633Z,10.90
2023-03-29T18:44:51.552Z,10.80
2023-03-29T18:47:18.548Z,10.80
2023-03-29T18:49:45.611Z,10.90
2023-03-29T18:52:12.597Z,10.80
2023-03-29T18:54:39.464Z,10.80
2023-03-29T18:57:06.499Z,10.80
2023-03-29T18:59:35.971Z,10.80
2023-03-29T19:02:03.000Z,10.80
2023-03-29T19:04:30.102Z,10.80
2023-03-29T19:06:57.074Z,10.70
2023-03-29T19:09:23.947Z,10.80
2023-03-29T19:11:51.065Z,10.80
2023-03-29T19:14:23.386Z,10.80
2023-03-29T19:16:51.882Z,10.80
2023-03-29T19:19:20.010Z,10.80
2023-03-29T19:21:47.413Z,10.80
2023-03-29T19:24:15.376Z,10.80
2023-03-29T19:26:43.652Z,10.80
2023-03-29T19:29:10.654Z,10.70
2023-03-29T19:31:38.025Z,10.80
2023-03-29T19:34:06.957Z,10.80
2023-03-29T19:36:34.047Z,10.70
2023-03-29T19:39:01.246Z,10.70
2023-03-29T19:41:28.612Z,10.70
2023-03-29T19:43:55.482Z,10.70
2023-03-29T19:46:22.451Z,10.70
2023-03-29T19:48:49.564Z,10.70
2023-03-29T19:51:16.792Z,10.70
2023-03-29T19:53:43.683Z,10.70
2023-03-29T19:56:11.081Z,10.70
2023-03-29T19:58:38.081Z,10.70
2023-03-29T20:01:05.143Z,10.70
2023-03-29T20:03:34.042Z,10.70
2023-03-29T20:06:01.555Z,10.70
2023-03-29T20:08:28.617Z,10.60
2023-03-29T20:11:07.365Z,10.60
2023-03-29T20:13:38.607Z,10.60
2023-03-29T20:16:14.864Z,10.60
2023-03-29T20:18:44.763Z,10.60
2023-03-29T20:21:18.953Z,10.60
2023-03-29T20:23:45.871Z,10.60
2023-03-29T20:26:13.042Z,10.60
2023-03-29T20:28:39.936Z,10.50
2023-03-29T20:31:10.676Z,10.50
2023-03-29T20:33:37.921Z,10.50
2023-03-29T20:36:06.570Z,10.50
2023-03-29T20:38:33.550Z,10.40
2023-03-29T20:41:00.583Z,10.50
2023-03-29T20:43:27.550Z,10.50
2023-03-29T20:45:55.385Z,10.40
2023-03-29T20:48:24.317Z,10.50
2023-03-29T20:50:51.504Z,10.40
2023-03-29T20:53:20.220Z,10.50
2023-03-29T20:55:47.875Z,10.40
2023-03-29T20:58:15.883Z,10.40
2023-03-29T21:00:43.840Z,10.30
2023-03-29T21:03:11.230Z,10.30
2023-03-29T21:05:38.948Z,10.30
2023-03-29T21:08:06.277Z,10.20
2023-03-29T21:10:33.428Z,10.20
2023-03-29T21:13:02.589Z,10.20
2023-03-29T21:15:30.764Z,10.20
2023-03-29T21:17:58.406Z,10.20
2023-03-29T21:20:25.523Z,10.20
2023-03-29T21:22:52.402Z,10.20
2023-03-29T21:25:19.645Z,10.10
2023-03-29T21:27:46.921Z,10.10
2023-03-29T21:30:14.128Z,10.10
2023-03-29T21:32:41.264Z,10.10
2023-03-29T21:35:09.075Z,10.00
2023-03-29T21:37:36.055Z,10.00
2023-03-29T21:40:05.875Z,10.00
2023-03-29T21:42:34.181Z,10.00
2023-03-29T21:45:01.501Z,10.00
2023-03-29T21:47:29.080Z,10.00
2023-03-29T21:49:56.081Z,10.00
2023-03-29T21:52:22.948Z,10.00
2023-03-29T21:54:49.957Z,10.00
2023-03-29T21:57:16.904Z,10.00
2023-03-29T21:59:43.834Z,10.00
2023-03-29T22:02:10.902Z,10.00
2023-03-29T22:04:37.969Z,10.00
2023-03-29T22:07:06.202Z,10.00
2023-03-29T22:09:35.209Z,10.10
2023-03-29T22:12:02.940Z,10.10
2023-03-29T22:14:31.777Z,10.10
2023-03-29T22:16:58.657Z,10.10
2023-03-29T22:19:25.647Z,10.10
2023-03-29T22:21:52.518Z,10.20
2023-03-29T22:24:19.373Z,10.20
2023-03-29T22:26:47.000Z,10.20
2023-03-29T22:29:13.850Z,10.20
2023-03-29T22:31:40.929Z,10.20
2023-03-29T22:34:07.794Z,10.30
2023-03-29T22:36:36.167Z,10.30
2023-03-29T22:39:03.616Z,10.40
2023-03-29T22:41:30.853Z,10.30
2023-03-29T22:44:00.921Z,10.30
2023-03-29T22:46:27.959Z,10.30
2023-03-29T22:48:55.003Z,10.40
2023-03-29T22:51:21.939Z,10.40
2023-03-29T22:53:48.760Z,10.30
2023-03-29T22:56:16.817Z,10.40
2023-03-29T22:58:44.422Z,10.40
2023-03-29T23:01:11.800Z,10.40
2023-03-29T23:03:38.760Z,10.30
2023-03-29T23:06:06.027Z,10.30
2023-03-29T23:08:33.876Z,10.30
2023-03-29T23:11:01.624Z,10.30
2023-03-29T23:13:29.417Z,10.20
2023-03-29T23:15:58.962Z,10.20
2023-03-29T23:18:27.745Z,10.20
2023-03-29T23:20:56.692Z,10.20
2023-03-29T23:23:25.152Z,10.20
2023-03-29T23:25:53.252Z,10.20
2023-03-29T23:28:24.514Z,10.20
2023-03-29T23:30:58.290Z,10.20
2023-03-29T23:33:36.143Z,10.30
2023-03-29T23:36:05.522Z,10.40
2023-03-29T23:38:33.317Z,10.40
2023-03-29T23:41:02.504Z,10.40
2023-03-29T23:43:32.832Z,10.40
2023-03-29T23:46:05.175Z,10.50
2023-03-29T23:48:32.716Z,10.50
2023-03-29T23:50:59.987Z,10.50
2023-03-29T23:53:28.874Z,10.50
2023-03-29T23:56:00.433Z,10.60
2023-03-29T23:58:28.608Z,10.60
